Aérodrome :
LOGIN :

S'inscrire | Disclaimer

   EN    FR    IT 

 










Légende :    VFR   VFR Marginal   IFR   IFR Intensif   IFR Très Intensif
Visi : 
Plafond : 
>= 8 km
>= 3000ft
5 à 8 km
1000 à 3000 ft
1500m à 5 km
500 à 1000 ft
800 à 1500m
200 à 500 ft
< 800m
< 200 ft
Symboles :   Orages  Brouillard  Fortes neiges  Fortes précipitations  Vent > 20 kt
SIGMETs :   Divers  Orages  Givrage  Turbulence  Onde Orograph.  Cendres Volcan.






- Altitude de l'aérodrome : 1768 ft


LEHC - Huesca Pirineos

DERNIER METAR :
  • 030930Z AUTO 11004KT 040V180 9999 VCTS FEW060/// ///CB 23/15 Q1011

METARs EXPIRÉS :
  • 030900Z AUTO 08005KT 030V120 9999 FEW060 21/16 Q1011
  • 030830Z AUTO 06002KT 9999 VCTS SCT065/// ///CB 20/14 Q1012
  • 030800Z AUTO 00000KT CAVOK 19/15 Q1012
  • 030730Z AUTO VRB02KT 9999 TS ///CB 18/15 Q1012
  • 030700Z AUTO VRB01KT CAVOK 18/15 Q1012

TAF TAF LEHC
Valide du 03 à 09h jusqu'au 04 à 09h UTC


030800Z 0309/0409 VRB04KT 9999 FEW060 TX26/0313Z TN12/0406Z
TEMPO 0309/0405 32015G30KT 4000 TSRA SCT030CB BKN040
BECMG 0402/0404 29010KT
TEMPO 0408/0409 29015G25KT



MET'MAP, la Météo Aéronautique d'un coup d'oeil ! - Copyright ORBIFLY Décembre 2007 - Disclaimer

ORBIFLY MET'MAP TEAM :

Programmation & Développement : Alexandra Zaïnal
Sur une idée originale de : Baudouin d'Aumeries
Assistance à la programmation : Marc-Olivier Méhu
Soutien technique & logistique : Manuel Goepfert

Contact : metmap@orbifly.com




SOURCES & CREDITS :

   NOAA